sensor_id;sensor_type;location;lat;lon;timestamp;P1;durP1;ratioP1;P2;durP2;ratioP2
54408;SDS011;40315;48.620;9.828;2024-02-21T00:00:19;9.27;;;5.00;;
54408;SDS011;40315;48.620;9.828;2024-02-21T00:02:46;10.57;;;5.25;;
54408;SDS011;40315;48.620;9.828;2024-02-21T00:05:16;10.52;;;5.10;;
54408;SDS011;40315;48.620;9.828;2024-02-21T00:07:43;10.10;;;4.63;;
54408;SDS011;40315;48.620;9.828;2024-02-21T00:10:10;11.05;;;5.00;;
54408;SDS011;40315;48.620;9.828;2024-02-21T00:12:37;10.70;;;6.18;;
54408;SDS011;40315;48.620;9.828;2024-02-21T00:15:04;13.52;;;6.38;;
54408;SDS011;40315;48.620;9.828;2024-02-21T00:17:32;8.57;;;5.72;;
54408;SDS011;40315;48.620;9.828;2024-02-21T00:19:58;8.82;;;5.75;;
54408;SDS011;40315;48.620;9.828;2024-02-21T00:22:29;12.98;;;6.10;;
54408;SDS011;40315;48.620;9.828;2024-02-21T00:24:58;13.18;;;5.60;;
54408;SDS011;40315;48.620;9.828;2024-02-21T00:27:25;11.30;;;6.03;;
54408;SDS011;40315;48.620;9.828;2024-02-21T00:29:52;10.13;;;5.90;;
54408;SDS011;40315;48.620;9.828;2024-02-21T00:32:22;10.20;;;5.60;;
54408;SDS011;40315;48.620;9.828;2024-02-21T00:34:50;10.07;;;5.43;;
54408;SDS011;40315;48.620;9.828;2024-02-21T00:37:17;7.63;;;4.47;;
54408;SDS011;40315;48.620;9.828;2024-02-21T00:39:45;11.60;;;5.30;;
54408;SDS011;40315;48.620;9.828;2024-02-21T00:42:13;9.75;;;4.80;;
54408;SDS011;40315;48.620;9.828;2024-02-21T00:44:39;7.95;;;4.78;;
54408;SDS011;40315;48.620;9.828;2024-02-21T00:47:06;7.60;;;4.35;;
54408;SDS011;40315;48.620;9.828;2024-02-21T00:49:35;9.95;;;5.30;;
54408;SDS011;40315;48.620;9.828;2024-02-21T00:52:03;8.63;;;5.03;;
54408;SDS011;40315;48.620;9.828;2024-02-21T00:54:30;10.40;;;5.35;;
54408;SDS011;40315;48.620;9.828;2024-02-21T00:57:00;9.45;;;5.35;;
54408;SDS011;40315;48.620;9.828;2024-02-21T00:59:29;9.27;;;5.40;;
54408;SDS011;40315;48.620;9.828;2024-02-21T01:01:59;10.25;;;4.70;;
54408;SDS011;40315;48.620;9.828;2024-02-21T01:04:29;9.82;;;4.28;;
54408;SDS011;40315;48.620;9.828;2024-02-21T01:06:56;7.32;;;4.60;;
54408;SDS011;40315;48.620;9.828;2024-02-21T01:09:23;6.55;;;4.03;;
54408;SDS011;40315;48.620;9.828;2024-02-21T01:11:50;7.45;;;4.30;;
54408;SDS011;40315;48.620;9.828;2024-02-21T01:14:21;9.38;;;4.45;;
54408;SDS011;40315;48.620;9.828;2024-02-21T01:16:48;9.52;;;4.07;;
54408;SDS011;40315;48.620;9.828;2024-02-21T01:19:15;7.28;;;4.20;;
54408;SDS011;40315;48.620;9.828;2024-02-21T01:21:42;9.50;;;4.30;;
54408;SDS011;40315;48.620;9.828;2024-02-21T01:24:11;9.00;;;4.45;;
54408;SDS011;40315;48.620;9.828;2024-02-21T01:26:40;6.40;;;4.25;;
54408;SDS011;40315;48.620;9.828;2024-02-21T01:29:06;9.95;;;3.85;;
54408;SDS011;40315;48.620;9.828;2024-02-21T01:31:35;7.38;;;4.22;;
54408;SDS011;40315;48.620;9.828;2024-02-21T01:34:02;8.90;;;3.72;;
54408;SDS011;40315;48.620;9.828;2024-02-21T01:36:29;8.68;;;4.20;;
54408;SDS011;40315;48.620;9.828;2024-02-21T01:38:55;8.10;;;4.30;;
54408;SDS011;40315;48.620;9.828;2024-02-21T01:41:22;8.75;;;4.10;;
54408;SDS011;40315;48.620;9.828;2024-02-21T01:43:49;12.95;;;4.40;;
54408;SDS011;40315;48.620;9.828;2024-02-21T01:46:16;9.38;;;4.68;;
54408;SDS011;40315;48.620;9.828;2024-02-21T01:48:45;11.80;;;4.47;;
54408;SDS011;40315;48.620;9.828;2024-02-21T01:51:14;8.75;;;4.47;;
54408;SDS011;40315;48.620;9.828;2024-02-21T01:53:42;10.13;;;4.70;;
54408;SDS011;40315;48.620;9.828;2024-02-21T01:56:10;7.70;;;4.18;;
54408;SDS011;40315;48.620;9.828;2024-02-21T01:58:40;9.13;;;4.32;;
54408;SDS011;40315;48.620;9.828;2024-02-21T02:03:53;7.95;;;4.15;;
54408;SDS011;40315;48.620;9.828;2024-02-21T02:06:21;9.07;;;4.22;;
54408;SDS011;40315;48.620;9.828;2024-02-21T02:08:48;6.68;;;3.67;;
54408;SDS011;40315;48.620;9.828;2024-02-21T02:11:15;9.52;;;4.45;;
54408;SDS011;40315;48.620;9.828;2024-02-21T02:13:43;9.23;;;3.88;;
54408;SDS011;40315;48.620;9.828;2024-02-21T02:16:10;8.43;;;3.85;;
54408;SDS011;40315;48.620;9.828;2024-02-21T02:18:37;6.00;;;3.75;;
54408;SDS011;40315;48.620;9.828;2024-02-21T02:21:05;6.22;;;3.50;;
54408;SDS011;40315;48.620;9.828;2024-02-21T02:23:40;8.30;;;3.88;;
54408;SDS011;40315;48.620;9.828;2024-02-21T02:26:08;8.02;;;3.08;;
54408;SDS011;40315;48.620;9.828;2024-02-21T02:28:35;7.28;;;3.47;;
54408;SDS011;40315;48.620;9.828;2024-02-21T02:31:02;8.75;;;3.50;;
54408;SDS011;40315;48.620;9.828;2024-02-21T02:33:29;6.50;;;3.40;;
54408;SDS011;40315;48.620;9.828;2024-02-21T02:35:56;10.63;;;3.95;;
54408;SDS011;40315;48.620;9.828;2024-02-21T02:38:24;9.45;;;3.63;;
54408;SDS011;40315;48.620;9.828;2024-02-21T02:40:52;6.53;;;3.30;;
54408;SDS011;40315;48.620;9.828;2024-02-21T02:43:19;6.47;;;2.97;;
54408;SDS011;40315;48.620;9.828;2024-02-21T02:45:46;6.65;;;3.33;;
54408;SDS011;40315;48.620;9.828;2024-02-21T02:48:13;9.20;;;3.60;;
54408;SDS011;40315;48.620;9.828;2024-02-21T02:50:40;9.20;;;3.25;;
54408;SDS011;40315;48.620;9.828;2024-02-21T02:53:07;8.20;;;3.13;;
54408;SDS011;40315;48.620;9.828;2024-02-21T02:55:34;9.55;;;3.13;;
54408;SDS011;40315;48.620;9.828;2024-02-21T02:58:03;7.15;;;3.20;;
54408;SDS011;40315;48.620;9.828;2024-02-21T03:00:30;6.28;;;2.95;;
54408;SDS011;40315;48.620;9.828;2024-02-21T03:03:01;7.15;;;3.15;;
54408;SDS011;40315;48.620;9.828;2024-02-21T03:05:29;6.30;;;2.78;;
54408;SDS011;40315;48.620;9.828;2024-02-21T03:07:56;5.55;;;2.58;;
54408;SDS011;40315;48.620;9.828;2024-02-21T03:10:23;4.70;;;2.47;;
54408;SDS011;40315;48.620;9.828;2024-02-21T03:12:50;4.63;;;2.20;;
54408;SDS011;40315;48.620;9.828;2024-02-21T03:15:20;6.10;;;2.67;;
54408;SDS011;40315;48.620;9.828;2024-02-21T03:17:49;6.72;;;2.58;;
54408;SDS011;40315;48.620;9.828;2024-02-21T03:20:16;5.47;;;2.53;;
54408;SDS011;40315;48.620;9.828;2024-02-21T03:22:45;5.55;;;2.92;;
54408;SDS011;40315;48.620;9.828;2024-02-21T03:25:12;5.65;;;2.80;;
54408;SDS011;40315;48.620;9.828;2024-02-21T03:27:40;6.80;;;2.90;;
54408;SDS011;40315;48.620;9.828;2024-02-21T03:30:07;7.07;;;3.50;;
54408;SDS011;40315;48.620;9.828;2024-02-21T03:32:36;7.00;;;3.25;;
54408;SDS011;40315;48.620;9.828;2024-02-21T03:35:06;5.85;;;2.72;;
54408;SDS011;40315;48.620;9.828;2024-02-21T03:37:33;7.53;;;2.80;;
54408;SDS011;40315;48.620;9.828;2024-02-21T03:40:00;7.00;;;2.90;;
54408;SDS011;40315;48.620;9.828;2024-02-21T03:42:27;7.30;;;2.90;;
54408;SDS011;40315;48.620;9.828;2024-02-21T03:44:58;8.85;;;3.20;;
54408;SDS011;40315;48.620;9.828;2024-02-21T03:47:25;4.55;;;2.80;;
54408;SDS011;40315;48.620;9.828;2024-02-21T03:49:53;4.68;;;2.70;;
54408;SDS011;40315;48.620;9.828;2024-02-21T03:52:23;5.47;;;2.33;;
54408;SDS011;40315;48.620;9.828;2024-02-21T03:54:49;7.95;;;2.38;;
54408;SDS011;40315;48.620;9.828;2024-02-21T03:57:16;5.25;;;2.42;;
54408;SDS011;40315;48.620;9.828;2024-02-21T03:59:46;6.00;;;2.78;;
54408;SDS011;40315;48.620;9.828;2024-02-21T04:02:15;4.78;;;2.17;;
54408;SDS011;40315;48.620;9.828;2024-02-21T04:04:42;6.47;;;2.60;;
54408;SDS011;40315;48.620;9.828;2024-02-21T04:07:12;5.88;;;2.58;;
54408;SDS011;40315;48.620;9.828;2024-02-21T04:09:39;9.55;;;2.70;;
54408;SDS011;40315;48.620;9.828;2024-02-21T04:12:07;8.90;;;2.55;;
54408;SDS011;40315;48.620;9.828;2024-02-21T04:14:36;9.48;;;3.00;;
54408;SDS011;40315;48.620;9.828;2024-02-21T04:17:04;8.63;;;3.28;;
54408;SDS011;40315;48.620;9.828;2024-02-21T04:19:32;5.10;;;2.78;;
54408;SDS011;40315;48.620;9.828;2024-02-21T04:22:02;6.82;;;3.13;;
54408;SDS011;40315;48.620;9.828;2024-02-21T04:24:33;7.80;;;2.92;;
54408;SDS011;40315;48.620;9.828;2024-02-21T04:27:02;8.20;;;3.22;;
54408;SDS011;40315;48.620;9.828;2024-02-21T04:29:29;6.55;;;2.78;;
54408;SDS011;40315;48.620;9.828;2024-02-21T04:31:56;7.13;;;2.60;;
54408;SDS011;40315;48.620;9.828;2024-02-21T04:34:25;5.90;;;2.90;;
54408;SDS011;40315;48.620;9.828;2024-02-21T04:36:54;5.85;;;2.28;;
54408;SDS011;40315;48.620;9.828;2024-02-21T04:39:23;6.82;;;2.70;;
54408;SDS011;40315;48.620;9.828;2024-02-21T04:41:52;6.95;;;2.70;;
54408;SDS011;40315;48.620;9.828;2024-02-21T04:44:18;4.65;;;2.10;;
54408;SDS011;40315;48.620;9.828;2024-02-21T04:46:47;3.58;;;2.22;;
54408;SDS011;40315;48.620;9.828;2024-02-21T04:49:16;7.38;;;2.63;;
54408;SDS011;40315;48.620;9.828;2024-02-21T04:51:43;7.10;;;2.65;;
54408;SDS011;40315;48.620;9.828;2024-02-21T04:54:10;7.18;;;2.42;;
54408;SDS011;40315;48.620;9.828;2024-02-21T04:56:39;7.22;;;3.00;;
54408;SDS011;40315;48.620;9.828;2024-02-21T04:59:08;6.30;;;2.63;;
54408;SDS011;40315;48.620;9.828;2024-02-21T05:01:35;6.43;;;2.83;;
54408;SDS011;40315;48.620;9.828;2024-02-21T05:04:04;7.43;;;2.47;;
54408;SDS011;40315;48.620;9.828;2024-02-21T05:06:31;7.53;;;2.70;;
54408;SDS011;40315;48.620;9.828;2024-02-21T05:08:58;5.03;;;2.67;;
54408;SDS011;40315;48.620;9.828;2024-02-21T05:11:25;4.90;;;2.35;;
54408;SDS011;40315;48.620;9.828;2024-02-21T05:13:52;5.85;;;2.20;;
54408;SDS011;40315;48.620;9.828;2024-02-21T05:16:20;5.88;;;2.28;;
54408;SDS011;40315;48.620;9.828;2024-02-21T05:18:47;5.90;;;2.10;;
54408;SDS011;40315;48.620;9.828;2024-02-21T05:21:17;6.45;;;2.38;;
54408;SDS011;40315;48.620;9.828;2024-02-21T05:23:44;8.00;;;2.25;;
54408;SDS011;40315;48.620;9.828;2024-02-21T05:26:19;8.18;;;2.42;;
54408;SDS011;40315;48.620;9.828;2024-02-21T05:28:47;3.47;;;1.95;;
54408;SDS011;40315;48.620;9.828;2024-02-21T05:31:14;5.95;;;2.72;;
54408;SDS011;40315;48.620;9.828;2024-02-21T05:33:43;6.20;;;2.53;;
54408;SDS011;40315;48.620;9.828;2024-02-21T05:36:12;5.57;;;2.60;;
54408;SDS011;40315;48.620;9.828;2024-02-21T05:38:39;7.13;;;2.90;;
54408;SDS011;40315;48.620;9.828;2024-02-21T05:41:06;5.13;;;3.00;;
54408;SDS011;40315;48.620;9.828;2024-02-21T05:43:33;8.05;;;2.78;;
54408;SDS011;40315;48.620;9.828;2024-02-21T05:46:00;7.10;;;3.17;;
54408;SDS011;40315;48.620;9.828;2024-02-21T05:48:28;6.47;;;2.72;;
54408;SDS011;40315;48.620;9.828;2024-02-21T05:50:58;7.47;;;3.28;;
54408;SDS011;40315;48.620;9.828;2024-02-21T05:53:28;7.45;;;3.47;;
54408;SDS011;40315;48.620;9.828;2024-02-21T05:55:55;7.53;;;3.38;;
54408;SDS011;40315;48.620;9.828;2024-02-21T05:58:21;7.18;;;3.40;;
54408;SDS011;40315;48.620;9.828;2024-02-21T06:00:48;7.63;;;3.30;;
54408;SDS011;40315;48.620;9.828;2024-02-21T06:03:15;7.50;;;3.13;;
54408;SDS011;40315;48.620;9.828;2024-02-21T06:05:43;7.47;;;3.47;;
54408;SDS011;40315;48.620;9.828;2024-02-21T06:08:11;7.18;;;3.80;;
54408;SDS011;40315;48.620;9.828;2024-02-21T06:10:38;7.57;;;3.75;;
54408;SDS011;40315;48.620;9.828;2024-02-21T06:13:05;8.20;;;4.13;;
54408;SDS011;40315;48.620;9.828;2024-02-21T06:15:32;10.05;;;5.55;;
54408;SDS011;40315;48.620;9.828;2024-02-21T06:18:01;6.22;;;3.50;;
54408;SDS011;40315;48.620;9.828;2024-02-21T06:20:28;7.47;;;3.85;;
54408;SDS011;40315;48.620;9.828;2024-02-21T06:22:57;8.93;;;2.90;;
54408;SDS011;40315;48.620;9.828;2024-02-21T06:25:25;8.95;;;2.90;;
54408;SDS011;40315;48.620;9.828;2024-02-21T06:27:53;7.57;;;2.80;;
54408;SDS011;40315;48.620;9.828;2024-02-21T06:30:19;7.18;;;2.83;;
54408;SDS011;40315;48.620;9.828;2024-02-21T06:32:46;7.95;;;2.67;;
54408;SDS011;40315;48.620;9.828;2024-02-21T06:35:13;7.88;;;3.38;;
54408;SDS011;40315;48.620;9.828;2024-02-21T06:37:40;5.85;;;3.28;;
54408;SDS011;40315;48.620;9.828;2024-02-21T06:40:07;6.07;;;3.40;;
54408;SDS011;40315;48.620;9.828;2024-02-21T06:42:36;5.53;;;2.97;;
54408;SDS011;40315;48.620;9.828;2024-02-21T06:45:03;7.55;;;3.10;;
54408;SDS011;40315;48.620;9.828;2024-02-21T06:47:31;5.43;;;3.13;;
54408;SDS011;40315;48.620;9.828;2024-02-21T06:49:58;7.55;;;3.35;;
54408;SDS011;40315;48.620;9.828;2024-02-21T06:52:25;7.53;;;3.30;;
54408;SDS011;40315;48.620;9.828;2024-02-21T06:54:52;7.82;;;3.20;;
54408;SDS011;40315;48.620;9.828;2024-02-21T06:57:19;8.93;;;3.17;;
54408;SDS011;40315;48.620;9.828;2024-02-21T06:59:47;4.70;;;3.08;;
54408;SDS011;40315;48.620;9.828;2024-02-21T07:02:14;5.97;;;2.83;;
54408;SDS011;40315;48.620;9.828;2024-02-21T07:04:41;7.15;;;3.10;;
54408;SDS011;40315;48.620;9.828;2024-02-21T07:07:09;6.57;;;3.35;;
54408;SDS011;40315;48.620;9.828;2024-02-21T07:09:36;9.02;;;3.20;;
54408;SDS011;40315;48.620;9.828;2024-02-21T07:12:03;5.55;;;2.80;;
54408;SDS011;40315;48.620;9.828;2024-02-21T07:14:31;5.72;;;2.90;;
54408;SDS011;40315;48.620;9.828;2024-02-21T07:17:00;5.68;;;2.90;;
54408;SDS011;40315;48.620;9.828;2024-02-21T07:19:27;6.10;;;3.15;;
54408;SDS011;40315;48.620;9.828;2024-02-21T07:21:54;6.32;;;3.10;;
54408;SDS011;40315;48.620;9.828;2024-02-21T07:24:21;10.27;;;3.47;;
54408;SDS011;40315;48.620;9.828;2024-02-21T07:26:49;7.88;;;2.83;;
54408;SDS011;40315;48.620;9.828;2024-02-21T07:29:16;4.80;;;2.55;;
54408;SDS011;40315;48.620;9.828;2024-02-21T07:31:45;4.75;;;2.90;;
54408;SDS011;40315;48.620;9.828;2024-02-21T07:34:15;9.20;;;2.80;;
54408;SDS011;40315;48.620;9.828;2024-02-21T07:36:42;6.75;;;3.28;;
54408;SDS011;40315;48.620;9.828;2024-02-21T07:39:10;8.93;;;3.58;;
54408;SDS011;40315;48.620;9.828;2024-02-21T07:41:40;9.10;;;3.65;;
54408;SDS011;40315;48.620;9.828;2024-02-21T07:44:10;8.13;;;3.10;;
54408;SDS011;40315;48.620;9.828;2024-02-21T07:46:37;7.88;;;2.90;;
54408;SDS011;40315;48.620;9.828;2024-02-21T07:49:04;6.18;;;3.28;;
54408;SDS011;40315;48.620;9.828;2024-02-21T07:51:35;6.50;;;3.42;;
54408;SDS011;40315;48.620;9.828;2024-02-21T07:54:02;6.90;;;2.85;;
54408;SDS011;40315;48.620;9.828;2024-02-21T07:56:30;6.00;;;3.30;;
54408;SDS011;40315;48.620;9.828;2024-02-21T07:58:57;8.48;;;3.88;;
54408;SDS011;40315;48.620;9.828;2024-02-21T08:01:24;8.10;;;3.47;;
54408;SDS011;40315;48.620;9.828;2024-02-21T08:03:51;5.53;;;4.32;;
54408;SDS011;40315;48.620;9.828;2024-02-21T08:06:21;9.23;;;3.67;;
54408;SDS011;40315;48.620;9.828;2024-02-21T08:08:49;8.23;;;3.65;;
54408;SDS011;40315;48.620;9.828;2024-02-21T08:11:16;7.38;;;3.15;;
54408;SDS011;40315;48.620;9.828;2024-02-21T08:13:43;9.07;;;3.53;;
54408;SDS011;40315;48.620;9.828;2024-02-21T08:16:10;6.00;;;3.55;;
54408;SDS011;40315;48.620;9.828;2024-02-21T08:18:37;9.73;;;4.47;;
54408;SDS011;40315;48.620;9.828;2024-02-21T08:21:04;9.52;;;4.50;;
54408;SDS011;40315;48.620;9.828;2024-02-21T08:23:32;9.27;;;4.13;;
54408;SDS011;40315;48.620;9.828;2024-02-21T08:26:02;9.27;;;4.18;;
54408;SDS011;40315;48.620;9.828;2024-02-21T08:28:29;7.43;;;3.83;;
54408;SDS011;40315;48.620;9.828;2024-02-21T08:30:56;6.07;;;3.35;;
54408;SDS011;40315;48.620;9.828;2024-02-21T08:33:23;6.63;;;3.25;;
54408;SDS011;40315;48.620;9.828;2024-02-21T08:35:50;6.55;;;3.60;;
54408;SDS011;40315;48.620;9.828;2024-02-21T08:38:17;6.45;;;3.15;;
54408;SDS011;40315;48.620;9.828;2024-02-21T08:40:44;8.98;;;3.00;;
54408;SDS011;40315;48.620;9.828;2024-02-21T08:43:16;7.32;;;3.50;;
54408;SDS011;40315;48.620;9.828;2024-02-21T08:45:48;6.57;;;3.75;;
54408;SDS011;40315;48.620;9.828;2024-02-21T08:48:14;8.75;;;3.83;;
54408;SDS011;40315;48.620;9.828;2024-02-21T08:50:42;7.00;;;3.63;;
54408;SDS011;40315;48.620;9.828;2024-02-21T08:53:09;7.45;;;3.92;;
54408;SDS011;40315;48.620;9.828;2024-02-21T08:55:36;8.38;;;3.55;;
54408;SDS011;40315;48.620;9.828;2024-02-21T08:58:05;5.78;;;3.35;;
54408;SDS011;40315;48.620;9.828;2024-02-21T09:00:33;10.60;;;3.78;;
54408;SDS011;40315;48.620;9.828;2024-02-21T09:03:01;8.48;;;3.10;;
54408;SDS011;40315;48.620;9.828;2024-02-21T09:05:28;7.43;;;3.22;;
54408;SDS011;40315;48.620;9.828;2024-02-21T09:07:57;6.95;;;2.60;;
54408;SDS011;40315;48.620;9.828;2024-02-21T09:10:24;7.57;;;2.60;;
54408;SDS011;40315;48.620;9.828;2024-02-21T09:12:54;4.82;;;2.42;;
54408;SDS011;40315;48.620;9.828;2024-02-21T09:15:21;4.05;;;2.75;;
54408;SDS011;40315;48.620;9.828;2024-02-21T09:17:50;8.10;;;2.25;;
54408;SDS011;40315;48.620;9.828;2024-02-21T09:20:18;5.57;;;2.95;;
54408;SDS011;40315;48.620;9.828;2024-02-21T09:22:50;4.32;;;2.80;;
54408;SDS011;40315;48.620;9.828;2024-02-21T09:25:18;6.78;;;2.80;;
54408;SDS011;40315;48.620;9.828;2024-02-21T09:27:45;6.07;;;2.75;;
54408;SDS011;40315;48.620;9.828;2024-02-21T09:30:12;7.43;;;3.30;;
54408;SDS011;40315;48.620;9.828;2024-02-21T09:32:39;9.07;;;3.78;;
54408;SDS011;40315;48.620;9.828;2024-02-21T09:35:08;6.93;;;3.60;;
54408;SDS011;40315;48.620;9.828;2024-02-21T09:37:37;4.22;;;2.42;;
54408;SDS011;40315;48.620;9.828;2024-02-21T09:40:05;3.63;;;2.00;;
54408;SDS011;40315;48.620;9.828;2024-02-21T09:42:35;4.20;;;2.15;;
54408;SDS011;40315;48.620;9.828;2024-02-21T09:45:04;6.28;;;2.00;;
54408;SDS011;40315;48.620;9.828;2024-02-21T09:47:41;4.07;;;2.10;;
54408;SDS011;40315;48.620;9.828;2024-02-21T09:50:17;5.05;;;2.03;;
54408;SDS011;40315;48.620;9.828;2024-02-21T09:52:46;4.80;;;1.80;;
54408;SDS011;40315;48.620;9.828;2024-02-21T09:55:17;5.50;;;2.15;;
54408;SDS011;40315;48.620;9.828;2024-02-21T09:57:45;4.90;;;2.10;;
54408;SDS011;40315;48.620;9.828;2024-02-21T10:00:13;8.98;;;2.20;;
54408;SDS011;40315;48.620;9.828;2024-02-21T10:02:46;3.33;;;1.45;;
54408;SDS011;40315;48.620;9.828;2024-02-21T10:05:14;3.70;;;1.63;;
54408;SDS011;40315;48.620;9.828;2024-02-21T10:07:45;3.20;;;1.58;;
54408;SDS011;40315;48.620;9.828;2024-02-21T10:10:13;3.92;;;1.63;;
54408;SDS011;40315;48.620;9.828;2024-02-21T10:12:48;5.82;;;1.67;;
54408;SDS011;40315;48.620;9.828;2024-02-21T10:15:19;4.82;;;1.80;;
54408;SDS011;40315;48.620;9.828;2024-02-21T10:17:47;3.53;;;1.85;;
54408;SDS011;40315;48.620;9.828;2024-02-21T10:20:15;5.75;;;1.50;;
54408;SDS011;40315;48.620;9.828;2024-02-21T10:22:43;2.70;;;1.52;;
54408;SDS011;40315;48.620;9.828;2024-02-21T10:25:10;3.38;;;1.70;;
54408;SDS011;40315;48.620;9.828;2024-02-21T10:27:38;4.65;;;1.38;;
54408;SDS011;40315;48.620;9.828;2024-02-21T10:30:06;3.25;;;1.67;;
54408;SDS011;40315;48.620;9.828;2024-02-21T10:32:34;4.65;;;1.60;;
54408;SDS011;40315;48.620;9.828;2024-02-21T10:35:01;3.95;;;1.80;;
54408;SDS011;40315;48.620;9.828;2024-02-21T10:37:32;8.55;;;2.97;;
54408;SDS011;40315;48.620;9.828;2024-02-21T10:40:00;6.57;;;2.60;;
54408;SDS011;40315;48.620;9.828;2024-02-21T10:42:29;6.15;;;2.70;;
54408;SDS011;40315;48.620;9.828;2024-02-21T10:45:00;8.15;;;3.28;;
54408;SDS011;40315;48.620;9.828;2024-02-21T10:47:29;6.75;;;3.33;;
54408;SDS011;40315;48.620;9.828;2024-02-21T10:50:01;6.25;;;3.55;;
54408;SDS011;40315;48.620;9.828;2024-02-21T10:52:36;8.43;;;3.92;;
54408;SDS011;40315;48.620;9.828;2024-02-21T10:55:13;10.23;;;3.95;;
54408;SDS011;40315;48.620;9.828;2024-02-21T10:57:45;8.02;;;3.72;;
54408;SDS011;40315;48.620;9.828;2024-02-21T11:00:16;9.27;;;3.47;;
54408;SDS011;40315;48.620;9.828;2024-02-21T11:02:44;7.10;;;3.35;;
54408;SDS011;40315;48.620;9.828;2024-02-21T11:05:14;3.97;;;2.70;;
54408;SDS011;40315;48.620;9.828;2024-02-21T11:07:44;6.15;;;2.65;;
54408;SDS011;40315;48.620;9.828;2024-02-21T11:10:20;6.47;;;2.78;;
54408;SDS011;40315;48.620;9.828;2024-02-21T11:12:48;6.05;;;3.03;;
54408;SDS011;40315;48.620;9.828;2024-02-21T11:15:15;5.97;;;3.25;;
54408;SDS011;40315;48.620;9.828;2024-02-21T11:17:41;5.53;;;3.13;;
54408;SDS011;40315;48.620;9.828;2024-02-21T11:20:19;7.43;;;3.40;;
54408;SDS011;40315;48.620;9.828;2024-02-21T11:22:59;6.25;;;3.38;;
54408;SDS011;40315;48.620;9.828;2024-02-21T11:25:27;5.78;;;3.35;;
54408;SDS011;40315;48.620;9.828;2024-02-21T11:28:01;8.02;;;2.95;;
54408;SDS011;40315;48.620;9.828;2024-02-21T11:30:32;4.15;;;2.30;;
54408;SDS011;40315;48.620;9.828;2024-02-21T11:33:01;5.32;;;3.20;;
54408;SDS011;40315;48.620;9.828;2024-02-21T11:35:31;7.13;;;3.13;;
54408;SDS011;40315;48.620;9.828;2024-02-21T11:38:09;6.13;;;2.60;;
54408;SDS011;40315;48.620;9.828;2024-02-21T11:40:39;5.30;;;2.50;;
54408;SDS011;40315;48.620;9.828;2024-02-21T11:43:07;6.93;;;2.58;;
54408;SDS011;40315;48.620;9.828;2024-02-21T11:45:36;4.25;;;2.53;;
54408;SDS011;40315;48.620;9.828;2024-02-21T11:48:05;7.13;;;2.53;;
54408;SDS011;40315;48.620;9.828;2024-02-21T11:50:33;5.00;;;2.13;;
54408;SDS011;40315;48.620;9.828;2024-02-21T11:53:01;5.55;;;2.25;;
54408;SDS011;40315;48.620;9.828;2024-02-21T11:55:30;5.28;;;2.55;;
54408;SDS011;40315;48.620;9.828;2024-02-21T11:57:57;5.20;;;2.45;;
54408;SDS011;40315;48.620;9.828;2024-02-21T12:00:25;5.03;;;2.33;;
54408;SDS011;40315;48.620;9.828;2024-02-21T12:02:52;4.40;;;2.50;;
54408;SDS011;40315;48.620;9.828;2024-02-21T12:05:21;6.20;;;2.92;;
54408;SDS011;40315;48.620;9.828;2024-02-21T12:07:52;3.10;;;1.98;;
54408;SDS011;40315;48.620;9.828;2024-02-21T12:10:21;4.22;;;2.38;;
54408;SDS011;40315;48.620;9.828;2024-02-21T12:12:49;4.78;;;2.25;;
54408;SDS011;40315;48.620;9.828;2024-02-21T12:15:19;4.50;;;2.33;;
54408;SDS011;40315;48.620;9.828;2024-02-21T12:17:47;5.10;;;2.10;;
54408;SDS011;40315;48.620;9.828;2024-02-21T12:20:14;5.63;;;2.38;;
54408;SDS011;40315;48.620;9.828;2024-02-21T12:22:41;5.30;;;1.88;;
54408;SDS011;40315;48.620;9.828;2024-02-21T12:25:18;3.05;;;2.28;;
54408;SDS011;40315;48.620;9.828;2024-02-21T12:27:47;4.97;;;2.20;;
54408;SDS011;40315;48.620;9.828;2024-02-21T12:30:16;5.38;;;2.20;;
54408;SDS011;40315;48.620;9.828;2024-02-21T12:32:43;5.75;;;2.80;;
54408;SDS011;40315;48.620;9.828;2024-02-21T12:35:12;4.93;;;2.58;;
54408;SDS011;40315;48.620;9.828;2024-02-21T12:37:42;6.30;;;2.58;;
54408;SDS011;40315;48.620;9.828;2024-02-21T12:40:09;4.82;;;2.22;;
54408;SDS011;40315;48.620;9.828;2024-02-21T12:42:39;4.95;;;2.17;;
54408;SDS011;40315;48.620;9.828;2024-02-21T12:45:08;6.05;;;2.70;;
54408;SDS011;40315;48.620;9.828;2024-02-21T12:47:36;4.47;;;2.20;;
54408;SDS011;40315;48.620;9.828;2024-02-21T12:50:04;4.22;;;2.35;;
54408;SDS011;40315;48.620;9.828;2024-02-21T12:52:34;5.15;;;2.53;;
54408;SDS011;40315;48.620;9.828;2024-02-21T12:55:02;5.80;;;2.40;;
54408;SDS011;40315;48.620;9.828;2024-02-21T12:57:29;4.53;;;2.13;;
54408;SDS011;40315;48.620;9.828;2024-02-21T12:59:58;4.00;;;2.03;;
54408;SDS011;40315;48.620;9.828;2024-02-21T13:02:27;3.70;;;1.98;;
54408;SDS011;40315;48.620;9.828;2024-02-21T13:04:54;3.42;;;1.95;;
54408;SDS011;40315;48.620;9.828;2024-02-21T13:07:21;6.10;;;1.85;;
54408;SDS011;40315;48.620;9.828;2024-02-21T13:09:47;4.25;;;1.98;;
54408;SDS011;40315;48.620;9.828;2024-02-21T13:12:14;3.00;;;1.23;;
54408;SDS011;40315;48.620;9.828;2024-02-21T13:14:41;3.70;;;1.60;;
54408;SDS011;40315;48.620;9.828;2024-02-21T13:17:09;3.17;;;1.35;;
54408;SDS011;40315;48.620;9.828;2024-02-21T13:19:37;2.50;;;1.45;;
54408;SDS011;40315;48.620;9.828;2024-02-21T13:22:04;5.13;;;1.50;;
54408;SDS011;40315;48.620;9.828;2024-02-21T13:24:32;4.93;;;1.50;;
54408;SDS011;40315;48.620;9.828;2024-02-21T13:26:59;3.42;;;2.00;;
54408;SDS011;40315;48.620;9.828;2024-02-21T13:29:27;8.10;;;2.35;;
54408;SDS011;40315;48.620;9.828;2024-02-21T13:31:54;6.18;;;2.00;;
54408;SDS011;40315;48.620;9.828;2024-02-21T13:34:21;3.92;;;2.35;;
54408;SDS011;40315;48.620;9.828;2024-02-21T13:36:50;6.00;;;2.40;;
54408;SDS011;40315;48.620;9.828;2024-02-21T13:39:17;5.82;;;2.50;;
54408;SDS011;40315;48.620;9.828;2024-02-21T13:41:44;3.45;;;2.10;;
54408;SDS011;40315;48.620;9.828;2024-02-21T13:44:12;3.95;;;2.25;;
54408;SDS011;40315;48.620;9.828;2024-02-21T13:46:38;3.92;;;2.30;;
54408;SDS011;40315;48.620;9.828;2024-02-21T13:49:05;7.15;;;2.70;;
54408;SDS011;40315;48.620;9.828;2024-02-21T13:51:33;8.40;;;2.75;;
54408;SDS011;40315;48.620;9.828;2024-02-21T13:54:02;5.88;;;2.55;;
54408;SDS011;40315;48.620;9.828;2024-02-21T13:56:30;5.65;;;2.60;;
54408;SDS011;40315;48.620;9.828;2024-02-21T13:58:57;5.10;;;2.40;;
54408;SDS011;40315;48.620;9.828;2024-02-21T14:01:27;5.43;;;2.30;;
54408;SDS011;40315;48.620;9.828;2024-02-21T14:03:54;6.25;;;3.15;;
54408;SDS011;40315;48.620;9.828;2024-02-21T14:06:21;5.05;;;3.05;;
54408;SDS011;40315;48.620;9.828;2024-02-21T14:08:48;6.60;;;2.70;;
54408;SDS011;40315;48.620;9.828;2024-02-21T14:11:19;6.20;;;2.40;;
54408;SDS011;40315;48.620;9.828;2024-02-21T14:13:46;4.30;;;2.13;;
54408;SDS011;40315;48.620;9.828;2024-02-21T14:16:13;6.32;;;2.42;;
54408;SDS011;40315;48.620;9.828;2024-02-21T14:18:43;3.88;;;1.80;;
54408;SDS011;40315;48.620;9.828;2024-02-21T14:21:11;3.50;;;1.60;;
54408;SDS011;40315;48.620;9.828;2024-02-21T14:23:38;2.28;;;1.00;;
54408;SDS011;40315;48.620;9.828;2024-02-21T14:26:05;1.90;;;1.02;;
54408;SDS011;40315;48.620;9.828;2024-02-21T14:28:34;2.38;;;1.08;;
54408;SDS011;40315;48.620;9.828;2024-02-21T14:31:01;3.90;;;1.20;;
54408;SDS011;40315;48.620;9.828;2024-02-21T14:33:31;1.63;;;1.02;;
54408;SDS011;40315;48.620;9.828;2024-02-21T14:35:58;2.55;;;0.90;;
54408;SDS011;40315;48.620;9.828;2024-02-21T14:38:25;2.38;;;1.05;;
54408;SDS011;40315;48.620;9.828;2024-02-21T14:40:52;3.70;;;1.13;;
54408;SDS011;40315;48.620;9.828;2024-02-21T14:43:20;1.77;;;1.00;;
54408;SDS011;40315;48.620;9.828;2024-02-21T14:45:48;1.00;;;0.80;;
54408;SDS011;40315;48.620;9.828;2024-02-21T14:48:16;1.48;;;0.88;;
54408;SDS011;40315;48.620;9.828;2024-02-21T14:50:44;2.08;;;1.13;;
54408;SDS011;40315;48.620;9.828;2024-02-21T14:53:11;1.30;;;1.00;;
54408;SDS011;40315;48.620;9.828;2024-02-21T14:55:41;2.33;;;0.90;;